Time,TemperatureF,DewpointF,PressureIn,WindDirection,WindDirectionDegrees,WindSpeedMPH,WindSpeedGustMPH,Humidity,HourlyPrecipIn,Conditions,Clouds,dailyrainin,SoftwareType,DateUTC
2013-02-04 00:00:00,22.0,15.6,30.02,NW,315,0.0,13.0,76,0.00,,,-99.99,Weather View 32 v60,2013-02-04 05:00:00,
2013-02-04 00:05:00,22.0,15.9,30.02,SW,225,0.0,13.0,77,0.00,,,-99.99,Weather View 32 v60,2013-02-04 05:05:00,
2013-02-04 00:10:00,22.0,15.9,30.02,West,270,2.0,13.0,77,0.00,,,-99.99,Weather View 32 v60,2013-02-04 05:10:00,
2013-02-04 00:15:00,21.0,14.3,30.02,SW,225,6.0,19.0,75,0.00,,,-99.99,Weather View 32 v60,2013-02-04 05:15:00,
2013-02-04 00:20:00,21.0,14.0,30.03,SW,225,4.0,19.0,74,0.00,,,-99.99,Weather View 32 v60,2013-02-04 05:20:00,
2013-02-04 00:25:00,21.0,13.7,30.03,SW,225,3.0,19.0,73,0.00,,,-99.99,Weather View 32 v60,2013-02-04 05:25:00,
2013-02-04 00:30:00,21.0,14.0,30.04,WSW,247,2.0,19.0,74,0.00,,,-99.99,Weather View 32 v60,2013-02-04 05:30:00,
2013-02-04 00:35:00,21.0,14.0,30.04,SW,225,1.0,19.0,74,0.00,,,-99.99,Weather View 32 v60,2013-02-04 05:35:00,
2013-02-04 00:40:00,21.0,13.7,30.04,WSW,247,3.0,19.0,73,0.00,,,-99.99,Weather View 32 v60,2013-02-04 05:40:00,
2013-02-04 00:45:00,21.0,13.4,30.04,West,270,5.0,19.0,72,0.00,,,-99.99,Weather View 32 v60,2013-02-04 05:45:00,
2013-02-04 00:50:00,21.0,13.1,30.04,NW,315,3.0,19.0,71,0.00,,,-99.99,Weather View 32 v60,2013-02-04 05:50:00,
2013-02-04 00:55:00,20.0,13.4,30.04,West,270,3.0,19.0,75,0.00,,,-99.99,Weather View 32 v60,2013-02-04 05:55:00,
2013-02-04 01:00:00,20.0,13.4,30.05,SW,225,4.0,19.0,75,0.00,,,-99.99,Weather View 32 v60,2013-02-04 06:00:00,
2013-02-04 01:05:00,20.0,13.4,30.05,East,90,3.0,19.0,75,0.00,,,-99.99,Weather View 32 v60,2013-02-04 06:05:00,
2013-02-04 01:10:00,20.0,12.7,30.06,West,270,1.0,19.0,73,0.00,,,-99.99,Weather View 32 v60,2013-02-04 06:10:00,
2013-02-04 01:15:00,20.0,13.4,30.06,SW,225,2.0,19.0,75,0.00,,,-99.99,Weather View 32 v60,2013-02-04 06:15:00,
2013-02-04 01:20:00,20.0,12.7,30.05,West,270,4.0,11.0,73,0.00,,,-99.99,Weather View 32 v60,2013-02-04 06:20:00,
2013-02-04 01:25:00,20.0,12.4,30.05,WSW,247,1.0,11.0,72,0.00,,,-99.99,Weather View 32 v60,2013-02-04 06:25:00,
2013-02-04 01:30:00,20.0,12.1,30.06,SW,225,6.0,11.0,71,0.00,,,-99.99,Weather View 32 v60,2013-02-04 06:30:00,
2013-02-04 01:35:00,20.0,13.4,30.06,WNW,292,1.0,11.0,75,0.00,,,-99.99,Weather View 32 v60,2013-02-04 06:35:00,
2013-02-04 01:40:00,20.0,12.7,30.06,WSW,247,1.0,10.0,73,0.00,,,-99.99,Weather View 32 v60,2013-02-04 06:40:00,
2013-02-04 01:45:00,19.0,11.8,30.06,SW,225,2.0,10.0,73,0.00,,,-99.99,Weather View 32 v60,2013-02-04 06:45:00,
2013-02-04 01:50:00,19.0,12.1,30.06,SW,225,6.0,10.0,74,0.00,,,-99.99,Weather View 32 v60,2013-02-04 06:50:00,
2013-02-04 01:55:00,19.0,11.5,30.06,WSW,247,4.0,10.0,72,0.00,,,-99.99,Weather View 32 v60,2013-02-04 06:55:00,
2013-02-04 02:00:00,19.0,12.1,30.07,SW,225,1.0,10.0,74,0.00,,,-99.99,Weather View 32 v60,2013-02-04 07:00:00,
2013-02-04 02:05:00,19.0,11.8,30.07,SW,225,0.0,10.0,73,0.00,,,-99.99,Weather View 32 v60,2013-02-04 07:05:00,
2013-02-04 02:10:00,19.0,12.7,30.06,WSW,247,2.0,10.0,76,0.00,,,-99.99,Weather View 32 v60,2013-02-04 07:10:00,
2013-02-04 02:15:00,19.0,11.8,30.06,West,270,1.0,14.0,73,0.00,,,-99.99,Weather View 32 v60,2013-02-04 07:15:00,
2013-02-04 02:20:00,19.0,11.8,30.07,West,270,7.0,14.0,73,0.00,,,-99.99,Weather View 32 v60,2013-02-04 07:20:00,
2013-02-04 02:25:00,19.0,12.4,30.07,WSW,247,5.0,14.0,75,0.00,,,-99.99,Weather View 32 v60,2013-02-04 07:25:00,
2013-02-04 02:30:00,19.0,12.1,30.07,WSW,247,5.0,14.0,74,0.00,,,-99.99,Weather View 32 v60,2013-02-04 07:30:00,
2013-02-04 02:35:00,19.0,11.8,30.07,WSW,247,9.0,15.0,73,0.00,,,-99.99,Weather View 32 v60,2013-02-04 07:35:00,
2013-02-04 02:40:00,19.0,11.8,30.07,WSW,247,2.0,15.0,73,0.00,,,-99.99,Weather View 32 v60,2013-02-04 07:40:00,
2013-02-04 02:45:00,19.0,12.4,30.07,WSW,247,5.0,15.0,75,0.00,,,-99.99,Weather View 32 v60,2013-02-04 07:45:00,
2013-02-04 02:50:00,19.0,12.4,30.08,WNW,292,3.0,15.0,75,0.00,,,-99.99,Weather View 32 v60,2013-02-04 07:50:00,
2013-02-04 02:55:00,18.0,11.4,30.08,West,270,0.0,15.0,75,0.00,,,-99.99,Weather View 32 v60,2013-02-04 07:55:00,
2013-02-04 03:00:00,18.0,12.0,30.08,SW,225,0.0,15.0,77,0.00,,,-99.99,Weather View 32 v60,2013-02-04 08:00:00,
2013-02-04 03:05:00,18.0,12.0,30.08,SW,225,0.0,15.0,77,0.00,,,-99.99,Weather View 32 v60,2013-02-04 08:05:00,
2013-02-04 03:10:00,19.0,12.4,30.09,West,270,5.0,15.0,75,0.00,,,-99.99,Weather View 32 v60,2013-02-04 08:10:00,
2013-02-04 03:15:00,19.0,12.7,30.09,WSW,247,4.0,15.0,76,0.00,,,-99.99,Weather View 32 v60,2013-02-04 08:15:00,
2013-02-04 03:30:00,18.0,11.7,30.09,West,270,2.0,15.0,76,0.00,,,-99.99,Weather View 32 v60,2013-02-04 08:30:00,
2013-02-04 03:35:00,18.0,12.0,30.09,NW,315,0.0,15.0,77,0.00,,,-99.99,Weather View 32 v60,2013-02-04 08:35:00,
2013-02-04 03:40:00,18.0,12.3,30.10,SW,225,0.0,9.0,78,0.00,,,-99.99,Weather View 32 v60,2013-02-04 08:40:00,
2013-02-04 03:50:00,18.0,12.6,30.10,WSW,247,0.0,9.0,79,0.00,,,-99.99,Weather View 32 v60,2013-02-04 08:50:00,
2013-02-04 03:55:00,18.0,12.0,30.10,WSW,247,1.0,9.0,77,0.00,,,-99.99,Weather View 32 v60,2013-02-04 08:55:00,
2013-02-04 04:05:00,18.0,12.6,30.11,NW,315,0.0,9.0,79,0.00,,,-99.99,Weather View 32 v60,2013-02-04 09:05:00,
2013-02-04 04:20:00,19.0,12.4,30.09,WSW,247,2.0,15.0,75,0.00,,,-99.99,Weather View 32 v60,2013-02-04 09:20:00,
2013-02-04 04:25:00,18.0,11.7,30.09,West,270,1.0,15.0,76,0.00,,,-99.99,Weather View 32 v60,2013-02-04 09:25:00,
2013-02-04 04:30:00,17.0,12.7,30.11,WSW,247,2.0,9.0,83,0.00,,,-99.99,Weather View 32 v60,2013-02-04 09:30:00,
2013-02-04 04:35:00,17.0,13.0,30.11,SW,225,0.0,7.0,84,0.00,,,-99.99,Weather View 32 v60,2013-02-04 09:35:00,
2013-02-04 04:40:00,17.0,12.7,30.12,WSW,247,5.0,7.0,83,0.00,,,-99.99,Weather View 32 v60,2013-02-04 09:40:00,
2013-02-04 04:45:00,18.0,12.6,30.10,SW,225,0.0,9.0,79,0.00,,,-99.99,Weather View 32 v60,2013-02-04 09:45:00,
2013-02-04 04:50:00,17.0,12.7,30.12,SW,225,0.0,7.0,83,0.00,,,-99.99,Weather View 32 v60,2013-02-04 09:50:00,
2013-02-04 04:55:00,16.0,12.8,30.12,SW,225,0.0,7.0,87,0.00,,,-99.99,Weather View 32 v60,2013-02-04 09:55:00,
2013-02-04 05:00:00,19.0,13.0,30.11,NW,315,0.0,9.0,77,0.00,,,-99.99,Weather View 32 v60,2013-02-04 10:00:00,
2013-02-04 05:05:00,17.0,13.5,30.12,SW,225,0.0,5.0,86,0.00,,,-99.99,Weather View 32 v60,2013-02-04 10:05:00,
2013-02-04 05:10:00,18.0,12.6,30.10,SW,225,0.0,9.0,79,0.00,,,-99.99,Weather View 32 v60,2013-02-04 10:10:00,
2013-02-04 05:15:00,18.0,13.2,30.10,SW,225,0.0,9.0,81,0.00,,,-99.99,Weather View 32 v60,2013-02-04 10:15:00,
2013-02-04 05:25:00,17.0,13.3,30.12,ENE,67,0.0,5.0,85,0.00,,,-99.99,Weather View 32 v60,2013-02-04 10:25:00,
2013-02-04 05:30:00,17.0,13.0,30.12,SW,225,0.0,5.0,84,0.00,,,-99.99,Weather View 32 v60,2013-02-04 10:30:00,
2013-02-04 05:35:00,16.0,12.8,30.12,SW,225,0.0,5.0,87,0.00,,,-99.99,Weather View 32 v60,2013-02-04 10:35:00,
2013-02-04 05:45:00,17.0,12.7,30.12,SW,225,0.0,7.0,83,0.00,,,-99.99,Weather View 32 v60,2013-02-04 10:45:00,
2013-02-04 05:55:00,17.0,12.7,30.13,West,270,0.0,5.0,83,0.00,,,-99.99,Weather View 32 v60,2013-02-04 10:55:00,
2013-02-04 06:10:00,17.0,13.3,30.12,SW,225,0.0,5.0,85,0.00,,,-99.99,Weather View 32 v60,2013-02-04 11:10:00,
2013-02-04 06:15:00,17.0,13.3,30.12,SW,225,0.0,5.0,85,0.00,,,-99.99,Weather View 32 v60,2013-02-04 11:15:00,
2013-02-04 06:20:00,17.0,13.3,30.12,SW,225,0.0,5.0,85,0.00,,,-99.99,Weather View 32 v60,2013-02-04 11:20:00,
2013-02-04 06:39:00,16.0,12.8,30.12,SW,225,0.0,5.0,87,0.00,,,-99.99,Weather View 32 v60,2013-02-04 11:39:00,
2013-02-04 06:45:00,17.0,13.3,30.12,SW,225,1.0,5.0,85,0.00,,,-99.99,Weather View 32 v60,2013-02-04 11:45:00,
2013-02-04 07:00:00,17.0,12.7,30.14,WSW,247,0.0,5.0,83,0.00,,,-99.99,Weather View 32 v60,2013-02-04 12:00:00,
2013-02-04 07:10:00,17.0,13.3,30.13,WSW,247,1.0,6.0,85,0.00,,,-99.99,Weather View 32 v60,2013-02-04 12:10:00,
2013-02-04 07:15:00,17.0,12.5,30.13,WNW,292,1.0,6.0,82,0.00,,,-99.99,Weather View 32 v60,2013-02-04 12:15:00,
2013-02-04 07:25:00,17.0,13.3,30.14,SW,225,1.0,6.0,85,0.00,,,-99.99,Weather View 32 v60,2013-02-04 12:25:00,
2013-02-04 07:30:00,17.0,13.0,30.15,WSW,247,0.0,6.0,84,0.00,,,-99.99,Weather View 32 v60,2013-02-04 12:30:00,
2013-02-04 07:35:00,17.0,13.3,30.15,WSW,247,0.0,6.0,85,0.00,,,-99.99,Weather View 32 v60,2013-02-04 12:35:00,
2013-02-04 07:40:00,18.0,14.0,30.15,WSW,247,0.0,6.0,84,0.00,,,-99.99,Weather View 32 v60,2013-02-04 12:40:00,
2013-02-04 07:45:00,18.0,13.4,30.15,SW,225,0.0,6.0,82,0.00,,,-99.99,Weather View 32 v60,2013-02-04 12:45:00,
2013-02-04 07:55:00,18.0,13.4,30.15,WSW,247,0.0,6.0,82,0.00,,,-99.99,Weather View 32 v60,2013-02-04 12:55:00,
2013-02-04 08:00:00,18.0,12.0,30.15,WSW,247,0.0,6.0,77,0.00,,,-99.99,Weather View 32 v60,2013-02-04 13:00:00,
2013-02-04 08:10:00,19.0,13.0,30.15,WSW,247,0.0,6.0,77,0.00,,,-99.99,Weather View 32 v60,2013-02-04 13:10:00,
2013-02-04 08:15:00,19.0,12.7,30.15,WSW,247,0.0,6.0,76,0.00,,,-99.99,Weather View 32 v60,2013-02-04 13:15:00,
2013-02-04 08:35:00,20.0,13.4,30.17,WSW,247,3.0,10.0,75,0.00,,,-99.99,Weather View 32 v60,2013-02-04 13:35:00,
2013-02-04 08:45:00,20.0,13.1,30.16,SW,225,0.0,10.0,74,0.00,,,-99.99,Weather View 32 v60,2013-02-04 13:45:00,
2013-02-04 08:55:00,21.0,12.8,30.16,SW,225,2.0,10.0,70,0.00,,,-99.99,Weather View 32 v60,2013-02-04 13:55:00,
2013-02-04 09:05:00,23.0,14.0,30.16,SW,225,3.0,10.0,68,0.00,,,-99.99,Weather View 32 v60,2013-02-04 14:05:00,
2013-02-04 09:15:00,23.0,13.0,30.16,SW,225,3.0,10.0,65,0.00,,,-99.99,Weather View 32 v60,2013-02-04 14:15:00,
2013-02-04 09:25:00,24.0,13.6,30.16,West,270,1.0,10.0,64,0.00,,,-99.99,Weather View 32 v60,2013-02-04 14:25:00,
2013-02-04 09:30:00,25.0,13.1,30.15,WSW,247,6.0,10.0,60,0.00,,,-99.99,Weather View 32 v60,2013-02-04 14:30:00,
2013-02-04 09:40:00,25.0,12.3,30.15,West,270,5.0,10.0,58,0.00,,,-99.99,Weather View 32 v60,2013-02-04 14:40:00,
2013-02-04 09:45:00,24.0,11.0,30.15,WSW,247,4.0,11.0,57,0.00,,,-99.99,Weather View 32 v60,2013-02-04 14:45:00,
2013-02-04 09:55:00,25.0,11.9,30.14,WSW,247,5.0,11.0,57,0.00,,,-99.99,Weather View 32 v60,2013-02-04 14:55:00,
2013-02-04 10:00:00,26.0,13.2,30.14,SW,225,5.0,11.0,58,0.00,,,-99.99,Weather View 32 v60,2013-02-04 15:00:00,
2013-02-04 10:05:00,26.0,11.6,30.14,WSW,247,0.0,11.0,54,0.00,,,-99.99,Weather View 32 v60,2013-02-04 15:05:00,
2013-02-04 10:10:00,26.0,12.8,30.14,SW,225,0.0,11.0,57,0.00,,,-99.99,Weather View 32 v60,2013-02-04 15:10:00,
2013-02-04 10:20:00,25.0,11.1,30.15,West,270,4.0,14.0,55,0.00,,,-99.99,Weather View 32 v60,2013-02-04 15:20:00,
2013-02-04 10:25:00,26.0,12.8,30.15,West,270,1.0,14.0,57,0.00,,,-99.99,Weather View 32 v60,2013-02-04 15:25:00,
2013-02-04 10:35:00,27.0,11.7,30.14,SW,225,3.0,14.0,52,0.00,,,-99.99,Weather View 32 v60,2013-02-04 15:35:00,
2013-02-04 10:41:00,28.0,11.7,30.14,WSW,247,3.0,14.0,50,0.00,,,-99.99,Weather View 32 v60,2013-02-04 15:41:00,
2013-02-04 10:50:00,26.0,9.4,30.14,SW,225,1.0,14.0,49,0.00,,,-99.99,Weather View 32 v60,2013-02-04 15:50:00,
2013-02-04 10:55:00,26.0,11.2,30.14,WSW,247,3.0,15.0,53,0.00,,,-99.99,Weather View 32 v60,2013-02-04 15:55:00,
2013-02-04 11:00:00,26.0,9.9,30.14,West,270,2.0,15.0,50,0.00,,,-99.99,Weather View 32 v60,2013-02-04 16:00:00,
2013-02-04 11:15:00,29.0,12.2,30.14,WSW,247,5.0,15.0,49,0.00,,,-99.99,Weather View 32 v60,2013-02-04 16:15:00,
2013-02-04 11:20:00,26.0,9.9,30.14,WSW,247,5.0,15.0,50,0.00,,,-99.99,Weather View 32 v60,2013-02-04 16:20:00,
2013-02-04 11:30:00,26.0,9.9,30.14,SW,225,0.0,15.0,50,0.00,,,-99.99,Weather View 32 v60,2013-02-04 16:30:00,
2013-02-04 11:35:00,29.0,12.7,30.14,WSW,247,4.0,15.0,50,0.00,,,-99.99,Weather View 32 v60,2013-02-04 16:35:00,
2013-02-04 11:40:00,28.0,10.8,30.13,WSW,247,4.0,15.0,48,0.00,,,-99.99,Weather View 32 v60,2013-02-04 16:40:00,
2013-02-04 11:45:00,27.0,9.9,30.13,West,270,6.0,15.0,48,0.00,,,-99.99,Weather View 32 v60,2013-02-04 16:45:00,
2013-02-04 11:55:00,26.0,11.6,30.13,West,270,4.0,12.0,54,0.00,,,-99.99,Weather View 32 v60,2013-02-04 16:55:00,
2013-02-04 12:45:00,26.0,10.3,30.12,SW,225,6.0,8.0,51,0.00,,,-99.99,Weather View 32 v60,2013-02-04 17:45:00,
2013-02-04 13:20:00,27.0,10.8,30.11,East,90,0.0,9.0,50,0.00,,,-99.99,Weather View 32 v60,2013-02-04 18:20:00,
2013-02-04 13:30:00,28.0,11.7,30.10,WSW,247,3.0,9.0,50,0.00,,,-99.99,Weather View 32 v60,2013-02-04 18:30:00,
2013-02-04 13:55:00,27.0,10.8,30.10,WNW,292,0.0,9.0,50,0.00,,,-99.99,Weather View 32 v60,2013-02-04 18:55:00,
2013-02-04 14:05:00,27.0,11.7,30.09,West,270,10.0,10.0,52,0.00,,,-99.99,Weather View 32 v60,2013-02-04 19:05:00,
2013-02-04 14:10:00,27.0,10.4,30.09,SW,225,1.0,10.0,49,0.00,,,-99.99,Weather View 32 v60,2013-02-04 19:10:00,
2013-02-04 14:15:00,27.0,9.4,30.10,West,270,2.0,10.0,47,0.00,,,-99.99,Weather View 32 v60,2013-02-04 19:15:00,
2013-02-04 14:25:00,28.0,11.7,30.10,West,270,5.0,10.0,50,0.00,,,-99.99,Weather View 32 v60,2013-02-04 19:25:00,
2013-02-04 14:30:00,27.0,9.9,30.10,SW,225,2.0,10.0,48,0.00,,,-99.99,Weather View 32 v60,2013-02-04 19:30:00,
2013-02-04 14:40:00,27.0,11.7,30.10,West,270,4.0,10.0,52,0.00,,,-99.99,Weather View 32 v60,2013-02-04 19:40:00,
2013-02-04 14:45:00,28.0,11.3,30.10,SW,225,0.0,10.0,49,0.00,,,-99.99,Weather View 32 v60,2013-02-04 19:45:00,
2013-02-04 14:55:00,27.0,10.4,30.10,West,270,3.0,10.0,49,0.00,,,-99.99,Weather View 32 v60,2013-02-04 19:55:00,
2013-02-04 15:05:00,27.0,10.8,30.09,WSW,247,3.0,10.0,50,0.00,,,-99.99,Weather View 32 v60,2013-02-04 20:05:00,
2013-02-04 15:10:00,27.0,10.4,30.09,WSW,247,3.0,10.0,49,0.00,,,-99.99,Weather View 32 v60,2013-02-04 20:10:00,
2013-02-04 15:20:00,27.0,10.4,30.09,WSW,247,6.0,10.0,49,0.00,,,-99.99,Weather View 32 v60,2013-02-04 20:20:00,
2013-02-04 15:25:00,27.0,10.4,30.10,West,270,1.0,10.0,49,0.00,,,-99.99,Weather View 32 v60,2013-02-04 20:25:00,
2013-02-04 15:30:00,28.0,10.8,30.09,WSW,247,0.0,10.0,48,0.00,,,-99.99,Weather View 32 v60,2013-02-04 20:30:00,
2013-02-04 15:35:00,28.0,12.2,30.09,NW,315,0.0,10.0,51,0.00,,,-99.99,Weather View 32 v60,2013-02-04 20:35:00,
2013-02-04 15:44:00,29.0,11.8,30.08,SW,225,0.0,9.0,48,0.00,,,-99.99,Weather View 32 v60,2013-02-04 20:44:00,
2013-02-04 15:50:00,27.0,10.4,30.08,SW,225,3.0,9.0,49,0.00,,,-99.99,Weather View 32 v60,2013-02-04 20:50:00,
2013-02-04 16:00:00,27.0,10.8,30.10,West,270,5.0,9.0,50,0.00,,,-99.99,Weather View 32 v60,2013-02-04 21:00:00,
2013-02-04 16:05:00,26.0,10.8,30.10,SW,225,0.0,10.0,52,0.00,,,-99.99,Weather View 32 v60,2013-02-04 21:05:00,
2013-02-04 16:15:00,25.0,10.3,30.10,SW,225,5.0,10.0,53,0.00,,,-99.99,Weather View 32 v60,2013-02-04 21:15:00,
2013-02-04 16:20:00,26.0,12.0,30.11,SW,225,1.0,12.0,55,0.00,,,-99.99,Weather View 32 v60,2013-02-04 21:20:00,
2013-02-04 16:25:00,25.0,10.7,30.11,SW,225,3.0,12.0,54,0.00,,,-99.99,Weather View 32 v60,2013-02-04 21:25:00,
2013-02-04 16:30:00,25.0,11.1,30.11,West,270,3.0,12.0,55,0.00,,,-99.99,Weather View 32 v60,2013-02-04 21:30:00,
2013-02-04 16:35:00,25.0,11.9,30.11,SW,225,0.0,12.0,57,0.00,,,-99.99,Weather View 32 v60,2013-02-04 21:35:00,
2013-02-04 16:44:00,25.0,11.1,30.11,WSW,247,3.0,12.0,55,0.00,,,-99.99,Weather View 32 v60,2013-02-04 21:44:00,
2013-02-04 16:50:00,25.0,11.9,30.11,WSW,247,1.0,12.0,57,0.00,,,-99.99,Weather View 32 v60,2013-02-04 21:50:00,
2013-02-04 17:00:00,25.0,11.5,30.11,SW,225,0.0,12.0,56,0.00,,,-99.99,Weather View 32 v60,2013-02-04 22:00:00,
2013-02-04 17:10:00,25.0,12.7,30.11,West,270,2.0,12.0,59,0.00,,,-99.99,Weather View 32 v60,2013-02-04 22:10:00,
2013-02-04 17:15:00,24.0,11.7,30.11,SW,225,1.0,12.0,59,0.00,,,-99.99,Weather View 32 v60,2013-02-04 22:15:00,
2013-02-04 17:20:00,24.0,11.7,30.11,SW,225,0.0,7.0,59,0.00,,,-99.99,Weather View 32 v60,2013-02-04 22:20:00,
2013-02-04 17:25:00,24.0,12.5,30.11,West,270,0.0,7.0,61,0.00,,,-99.99,Weather View 32 v60,2013-02-04 22:25:00,
2013-02-04 17:30:00,24.0,12.5,30.12,SW,225,0.0,6.0,61,0.00,,,-99.99,Weather View 32 v60,2013-02-04 22:30:00,
2013-02-04 17:40:00,23.0,11.6,30.12,SW,225,0.0,6.0,61,0.00,,,-99.99,Weather View 32 v60,2013-02-04 22:40:00,
2013-02-04 17:45:00,23.0,11.6,30.12,SW,225,0.0,6.0,61,0.00,,,-99.99,Weather View 32 v60,2013-02-04 22:45:00,
2013-02-04 17:55:00,22.0,11.3,30.12,SW,225,0.0,6.0,63,0.00,,,-99.99,Weather View 32 v60,2013-02-04 22:55:00,
2013-02-04 18:05:00,22.0,12.0,30.12,SW,225,0.0,6.0,65,0.00,,,-99.99,Weather View 32 v60,2013-02-04 23:05:00,
2013-02-04 18:15:00,22.0,12.0,30.12,SW,225,0.0,4.0,65,0.00,,,-99.99,Weather View 32 v60,2013-02-04 23:15:00,
2013-02-04 18:20:00,22.0,12.0,30.14,SW,225,0.0,4.0,65,0.00,,,-99.99,Weather View 32 v60,2013-02-04 23:20:00,
2013-02-04 18:25:00,22.0,12.4,30.14,SW,225,0.0,4.0,66,0.00,,,-99.99,Weather View 32 v60,2013-02-04 23:25:00,
2013-02-04 18:30:00,22.0,12.0,30.13,WSW,247,0.0,4.0,65,0.00,,,-99.99,Weather View 32 v60,2013-02-04 23:30:00,
2013-02-04 18:35:00,22.0,13.4,30.13,WSW,247,0.0,3.0,69,0.00,,,-99.99,Weather View 32 v60,2013-02-04 23:35:00,
2013-02-04 18:45:00,22.0,12.4,30.13,WSW,247,0.0,0.0,66,0.00,,,-99.99,Weather View 32 v60,2013-02-04 23:45:00,
2013-02-04 18:50:00,22.0,13.1,30.13,WSW,247,0.0,0.0,68,0.00,,,-99.99,Weather View 32 v60,2013-02-04 23:50:00,
2013-02-04 19:00:00,22.0,12.7,30.13,WSW,247,0.0,0.0,67,0.00,,,-99.99,Weather View 32 v60,2013-02-05 00:00:00,
2013-02-04 19:05:00,22.0,12.7,30.13,WSW,247,0.0,0.0,67,0.00,,,-99.99,Weather View 32 v60,2013-02-05 00:05:00,
2013-02-04 19:15:00,20.0,11.5,30.13,WSW,247,0.0,0.0,69,0.00,,,-99.99,Weather View 32 v60,2013-02-05 00:15:00,
2013-02-04 19:20:00,20.0,11.8,30.14,WSW,247,0.0,0.0,70,0.00,,,-99.99,Weather View 32 v60,2013-02-05 00:20:00,
2013-02-04 19:30:00,19.0,11.5,30.14,WSW,247,0.0,0.0,72,0.00,,,-99.99,Weather View 32 v60,2013-02-05 00:30:00,
2013-02-04 19:35:00,19.0,11.5,30.14,WSW,247,0.0,0.0,72,0.00,,,-99.99,Weather View 32 v60,2013-02-05 00:35:00,
2013-02-04 19:40:00,19.0,11.5,30.13,WSW,247,0.0,0.0,72,0.00,,,-99.99,Weather View 32 v60,2013-02-05 00:40:00,
2013-02-04 19:46:00,19.0,11.8,30.13,WSW,247,0.0,0.0,73,0.00,,,-99.99,Weather View 32 v60,2013-02-05 00:46:00,
2013-02-04 20:00:00,19.0,12.4,30.13,WSW,247,0.0,0.0,75,0.00,,,-99.99,Weather View 32 v60,2013-02-05 01:00:00,
2013-02-04 20:10:00,19.0,13.0,30.13,WSW,247,0.0,0.0,77,0.00,,,-99.99,Weather View 32 v60,2013-02-05 01:10:00,
2013-02-04 20:15:00,19.0,13.3,30.13,WSW,247,0.0,0.0,78,0.00,,,-99.99,Weather View 32 v60,2013-02-05 01:15:00,
2013-02-04 20:20:00,19.0,13.3,30.13,WSW,247,0.0,0.0,78,0.00,,,-99.99,Weather View 32 v60,2013-02-05 01:20:00,
2013-02-04 20:25:00,20.0,14.2,30.13,WSW,247,0.0,0.0,78,0.00,,,-99.99,Weather View 32 v60,2013-02-05 01:25:00,
2013-02-04 20:30:00,20.0,13.7,30.12,WSW,247,0.0,0.0,76,0.00,,,-99.99,Weather View 32 v60,2013-02-05 01:30:00,
2013-02-04 20:40:00,21.0,14.0,30.13,WSW,247,0.0,0.0,74,0.00,,,-99.99,Weather View 32 v60,2013-02-05 01:40:00,
2013-02-04 20:45:00,21.0,14.0,30.13,WSW,247,0.0,0.0,74,0.00,,,-99.99,Weather View 32 v60,2013-02-05 01:45:00,
2013-02-04 20:50:00,21.0,14.0,30.13,WSW,247,0.0,0.0,74,0.00,,,-99.99,Weather View 32 v60,2013-02-05 01:50:00,
2013-02-04 20:55:00,21.0,14.3,30.13,WSW,247,0.0,0.0,75,0.00,,,-99.99,Weather View 32 v60,2013-02-05 01:55:00,
2013-02-04 21:00:00,21.0,14.0,30.13,WSW,247,0.0,0.0,74,0.00,,,-99.99,Weather View 32 v60,2013-02-05 02:00:00,
2013-02-04 21:10:00,22.0,15.0,30.13,SW,225,0.0,0.0,74,0.00,,,-99.99,Weather View 32 v60,2013-02-05 02:10:00,
2013-02-04 21:15:00,22.0,15.0,30.13,SW,225,0.0,0.0,74,0.00,,,-99.99,Weather View 32 v60,2013-02-05 02:15:00,
2013-02-04 21:20:00,22.0,15.0,30.13,SW,225,0.0,0.0,74,0.00,,,-99.99,Weather View 32 v60,2013-02-05 02:20:00,
2013-02-04 21:30:00,22.0,15.3,30.12,SW,225,0.0,0.0,75,0.00,,,-99.99,Weather View 32 v60,2013-02-05 02:30:00,
2013-02-04 21:35:00,23.0,15.6,30.12,SW,225,0.0,0.0,73,0.00,,,-99.99,Weather View 32 v60,2013-02-05 02:35:00,
2013-02-04 21:45:00,23.0,15.6,30.12,SW,225,0.0,0.0,73,0.00,,,-99.99,Weather View 32 v60,2013-02-05 02:45:00,
2013-02-04 21:50:00,23.0,15.6,30.12,SW,225,0.0,0.0,73,0.00,,,-99.99,Weather View 32 v60,2013-02-05 02:50:00,
2013-02-04 21:55:00,23.0,15.0,30.13,SW,225,0.0,0.0,71,0.00,,,-99.99,Weather View 32 v60,2013-02-05 02:55:00,
2013-02-04 22:00:00,24.0,16.0,30.13,SW,225,0.0,0.0,71,0.00,,,-99.99,Weather View 32 v60,2013-02-05 03:00:00,
2013-02-04 22:05:00,24.0,16.0,30.11,SW,225,0.0,0.0,71,0.00,,,-99.99,Weather View 32 v60,2013-02-05 03:05:00,
2013-02-04 22:10:00,24.0,15.6,30.11,SW,225,0.0,0.0,70,0.00,,,-99.99,Weather View 32 v60,2013-02-05 03:10:00,
2013-02-04 22:20:00,24.0,15.3,30.11,SW,225,0.0,1.0,69,0.00,,,-99.99,Weather View 32 v60,2013-02-05 03:20:00,
2013-02-04 22:55:00,24.0,16.6,30.10,East,90,0.0,2.0,73,0.00,,,-99.99,Weather View 32 v60,2013-02-05 03:55:00,
2013-02-04 23:05:00,23.0,16.6,30.10,SW,225,0.0,2.0,76,0.00,,,-99.99,Weather View 32 v60,2013-02-05 04:05:00,
2013-02-04 23:10:00,23.0,19.7,30.09,SE,135,0.0,0.0,87,0.00,,,-99.99,Weather View 32 v60,2013-02-05 04:10:00,
2013-02-04 23:15:00,23.0,20.0,30.09,SE,135,0.0,0.0,88,0.00,,,-99.99,Weather View 32 v60,2013-02-05 04:15:00,
2013-02-04 23:20:00,23.0,20.0,30.09,SE,135,0.0,0.0,88,0.00,,,-99.99,Weather View 32 v60,2013-02-05 04:20:00,
2013-02-04 23:25:00,23.0,20.0,30.08,SE,135,0.0,0.0,88,0.00,,,-99.99,Weather View 32 v60,2013-02-05 04:25:00,
2013-02-04 23:30:00,23.0,18.3,30.10,SE,135,0.0,0.0,82,0.00,,,-99.99,Weather View 32 v60,2013-02-05 04:30:00,
2013-02-04 23:35:00,23.0,20.2,30.08,SE,135,0.0,0.0,89,0.00,,,-99.99,Weather View 32 v60,2013-02-05 04:35:00,
2013-02-04 23:40:00,23.0,18.6,30.10,SE,135,0.0,0.0,83,0.00,,,-99.99,Weather View 32 v60,2013-02-05 04:40:00,
2013-02-04 23:45:00,23.0,18.9,30.10,SE,135,0.0,0.0,84,0.00,,,-99.99,Weather View 32 v60,2013-02-05 04:45:00,
2013-02-04 23:50:00,23.0,20.0,30.08,SE,135,0.0,0.0,88,0.00,,,-99.99,Weather View 32 v60,2013-02-05 04:50:00,
2013-02-04 23:55:00,23.0,19.2,30.10,SE,135,0.0,0.0,85,0.00,,,-99.99,Weather View 32 v60,2013-02-05 04:55:00,